Time;durP1;ratioP1;P1;durP2;ratioP2;P2;SDS_P1;SDS_P2;PMS_P1;PMS_P2;Temp;Humidity;BMP_temperature;BMP_pressure;BME280_temperature;BME280_humidity;BME280_pressure;Samples;Min_cycle;Max_cycle;Signal;HPM_P1;HPM_P2
2023/12/18 00:00:21;;;;;;;1.85;1.75;;;;;;;;;;5087592;28;20298;-61
2023/12/18 00:02:48;;;;;;;1.65;1.55;;;;;;;;;;5087557;28;20211;-61
2023/12/18 00:05:15;;;;;;;1.60;1.50;;;;;;;;;;5092126;28;20337;-61
2023/12/18 00:07:43;;;;;;;1.92;1.70;;;;;;;;;;5091687;28;20207;-62
2023/12/18 00:10:10;;;;;;;1.52;1.42;;;;;;;;;;5092349;28;20219;-61
2023/12/18 00:12:39;;;;;;;1.80;1.70;;;;;;;;;;5088913;28;21160;-61
2023/12/18 00:15:08;;;;;;;1.45;1.35;;;;;;;;;;5091030;28;20225;-61
2023/12/18 00:17:35;;;;;;;1.70;1.60;;;;;;;;;;5092798;28;20579;-61
2023/12/18 00:20:02;;;;;;;1.60;1.50;;;;;;;;;;5094659;28;20592;-62
2023/12/18 00:22:29;;;;;;;1.70;1.60;;;;;;;;;;5092472;28;20285;-62
2023/12/18 00:24:57;;;;;;;1.63;1.52;;;;;;;;;;5089147;28;20228;-62
2023/12/18 00:27:24;;;;;;;1.65;1.55;;;;;;;;;;5091208;28;20269;-61
2023/12/18 00:29:53;;;;;;;1.80;1.70;;;;;;;;;;5093678;28;20301;-61
2023/12/18 00:32:20;;;;;;;1.67;1.58;;;;;;;;;;5092780;28;20207;-61
2023/12/18 00:34:47;;;;;;;1.50;1.40;;;;;;;;;;5089434;28;20238;-61
2023/12/18 00:37:15;;;;;;;1.80;1.70;;;;;;;;;;5090850;28;20220;-61
2023/12/18 00:39:42;;;;;;;1.67;1.58;;;;;;;;;;5091117;28;20619;-61
2023/12/18 00:42:10;;;;;;;2.30;1.80;;;;;;;;;;5090696;28;20211;-61
2023/12/18 00:44:37;;;;;;;1.90;1.70;;;;;;;;;;5088637;28;20235;-61
2023/12/18 00:47:06;;;;;;;1.92;1.73;;;;;;;;;;5092726;28;20216;-61
2023/12/18 00:49:33;;;;;;;1.70;1.60;;;;;;;;;;5090629;28;20222;-61
2023/12/18 00:52:00;;;;;;;1.80;1.60;;;;;;;;;;5091774;28;20204;-61
2023/12/18 00:54:28;;;;;;;1.70;1.60;;;;;;;;;;5087540;28;21492;-61
2023/12/18 00:56:55;;;;;;;1.70;1.60;;;;;;;;;;5091338;28;20219;-62
2023/12/18 00:59:23;;;;;;;1.63;1.52;;;;;;;;;;5090980;28;20210;-62
2023/12/18 01:01:50;;;;;;;1.60;1.50;;;;;;;;;;5092772;28;20281;-61
2023/12/18 01:04:19;;;;;;;1.60;1.50;;;;;;;;;;5090486;28;20200;-61
2023/12/18 01:06:46;;;;;;;1.90;1.80;;;;;;;;;;5091350;28;20272;-61
2023/12/18 01:09:14;;;;;;;2.00;1.75;;;;;;;;;;5086426;28;20209;-61
2023/12/18 01:11:41;;;;;;;1.70;1.60;;;;;;;;;;5091558;28;20600;-61
2023/12/18 01:14:09;;;;;;;1.67;1.58;;;;;;;;;;5091012;28;20869;-61
2023/12/18 01:16:36;;;;;;;1.60;1.50;;;;;;;;;;5090887;28;20942;-61
2023/12/18 01:19:04;;;;;;;1.85;1.75;;;;;;;;;;5090962;28;20610;-61
2023/12/18 01:21:33;;;;;;;1.70;1.60;;;;;;;;;;5093509;28;20494;-61
2023/12/18 01:24:00;;;;;;;1.65;1.55;;;;;;;;;;5089882;28;20211;-61
2023/12/18 01:26:27;;;;;;;1.60;1.50;;;;;;;;;;5090357;28;20735;-61
2023/12/18 01:28:54;;;;;;;1.83;1.73;;;;;;;;;;5089713;28;20321;-61
2023/12/18 01:31:22;;;;;;;1.70;1.60;;;;;;;;;;5093494;28;20565;-62
2023/12/18 01:33:50;;;;;;;1.63;1.52;;;;;;;;;;5091150;28;20315;-61
2023/12/18 01:36:17;;;;;;;1.75;1.65;;;;;;;;;;5088298;28;20224;-61
2023/12/18 01:38:46;;;;;;;1.80;1.58;;;;;;;;;;5090209;28;20203;-61
2023/12/18 01:41:14;;;;;;;1.60;1.50;;;;;;;;;;5089995;28;20593;-61
2023/12/18 01:43:41;;;;;;;1.80;1.70;;;;;;;;;;5090358;28;20234;-61
2023/12/18 01:46:09;;;;;;;1.60;1.50;;;;;;;;;;5087564;28;20280;-61
2023/12/18 01:48:37;;;;;;;1.52;1.42;;;;;;;;;;5090353;28;20211;-61
2023/12/18 01:51:04;;;;;;;1.70;1.60;;;;;;;;;;5090842;28;20212;-61
2023/12/18 01:53:33;;;;;;;1.92;1.70;;;;;;;;;;5090853;28;20207;-61
2023/12/18 01:56:03;;;;;;;1.63;1.52;;;;;;;;;;5090342;28;20817;-61
2023/12/18 01:58:32;;;;;;;1.70;1.60;;;;;;;;;;5089641;28;20232;-61
2023/12/18 02:01:00;;;;;;;1.63;1.52;;;;;;;;;;5089170;28;20330;-61
2023/12/18 02:03:29;;;;;;;1.60;1.50;;;;;;;;;;5088984;28;20207;-61
2023/12/18 02:05:56;;;;;;;1.95;1.75;;;;;;;;;;5089739;28;20240;-61
2023/12/18 02:08:24;;;;;;;1.65;1.55;;;;;;;;;;5091032;28;20589;-61
2023/12/18 02:10:51;;;;;;;1.80;1.70;;;;;;;;;;5087684;28;20214;-61
2023/12/18 02:13:20;;;;;;;2.03;1.83;;;;;;;;;;5086856;28;20227;-61
2023/12/18 02:15:48;;;;;;;1.70;1.60;;;;;;;;;;5088361;28;20509;-61
2023/12/18 02:18:15;;;;;;;1.73;1.63;;;;;;;;;;5091216;28;20269;-61
2023/12/18 02:20:42;;;;;;;1.80;1.70;;;;;;;;;;5090045;28;20204;-62
2023/12/18 02:23:11;;;;;;;1.77;1.67;;;;;;;;;;5089305;28;20211;-62
2023/12/18 02:25:38;;;;;;;1.73;1.63;;;;;;;;;;5087919;28;20573;-62
2023/12/18 02:28:08;;;;;;;1.77;1.67;;;;;;;;;;5089393;28;20478;-62
2023/12/18 02:30:35;;;;;;;1.67;1.58;;;;;;;;;;5090511;28;20264;-62
2023/12/18 02:33:03;;;;;;;1.55;1.45;;;;;;;;;;5085699;28;20226;-62
2023/12/18 02:35:30;;;;;;;1.77;1.67;;;;;;;;;;5089448;28;20261;-62
2023/12/18 02:37:57;;;;;;;1.40;1.30;;;;;;;;;;5091083;28;20294;-61
2023/12/18 02:40:26;;;;;;;1.73;1.60;;;;;;;;;;5091482;28;20234;-61
2023/12/18 02:42:54;;;;;;;1.65;1.55;;;;;;;;;;5089645;28;20207;-61
2023/12/18 02:45:21;;;;;;;1.73;1.40;;;;;;;;;;5089760;28;20844;-62
2023/12/18 02:47:49;;;;;;;2.10;2.00;;;;;;;;;;5089527;28;20211;-62
2023/12/18 02:50:16;;;;;;;1.75;1.65;;;;;;;;;;5087941;28;20282;-62
2023/12/18 02:52:43;;;;;;;1.90;1.80;;;;;;;;;;5088164;28;20214;-61
2023/12/18 02:55:12;;;;;;;1.80;1.70;;;;;;;;;;5086603;28;20223;-61
2023/12/18 02:57:40;;;;;;;2.05;1.85;;;;;;;;;;5087351;28;20247;-62
2023/12/18 03:00:09;;;;;;;1.60;1.50;;;;;;;;;;5088489;28;20200;-62
2023/12/18 03:02:36;;;;;;;1.75;1.65;;;;;;;;;;5092002;28;20288;-62
2023/12/18 03:05:04;;;;;;;2.00;1.90;;;;;;;;;;5090320;28;20211;-62
2023/12/18 03:07:31;;;;;;;1.75;1.65;;;;;;;;;;5089057;28;20220;-61
2023/12/18 03:09:59;;;;;;;1.65;1.55;;;;;;;;;;5088438;28;20573;-61
2023/12/18 03:12:26;;;;;;;1.60;1.50;;;;;;;;;;5088356;28;20648;-62
2023/12/18 03:14:54;;;;;;;1.90;1.80;;;;;;;;;;5085243;28;20517;-61
2023/12/18 03:17:22;;;;;;;1.90;1.75;;;;;;;;;;5089162;28;20285;-61
2023/12/18 03:19:49;;;;;;;1.92;1.83;;;;;;;;;;5088079;28;20411;-61
2023/12/18 03:22:16;;;;;;;1.77;1.67;;;;;;;;;;5089415;28;20211;-61
2023/12/18 03:24:44;;;;;;;1.63;1.52;;;;;;;;;;5088883;28;20211;-61
2023/12/18 03:27:11;;;;;;;1.83;1.73;;;;;;;;;;5087661;28;21094;-61
2023/12/18 03:29:39;;;;;;;1.90;1.80;;;;;;;;;;5088781;28;20208;-62
2023/12/18 03:32:08;;;;;;;2.10;1.90;;;;;;;;;;5089313;28;20493;-62
2023/12/18 03:34:35;;;;;;;2.00;1.88;;;;;;;;;;5088368;28;20204;-62
2023/12/18 03:37:03;;;;;;;2.08;1.88;;;;;;;;;;5089397;28;20215;-62
2023/12/18 03:39:30;;;;;;;2.30;2.10;;;;;;;;;;5092638;28;20210;-61
2023/12/18 03:41:57;;;;;;;1.88;1.77;;;;;;;;;;5092801;28;20208;-61
2023/12/18 03:44:24;;;;;;;1.98;1.77;;;;;;;;;;5094254;28;20293;-61
2023/12/18 03:46:52;;;;;;;2.22;2.03;;;;;;;;;;5091575;28;20231;-61
2023/12/18 03:49:20;;;;;;;1.95;1.75;;;;;;;;;;5093507;28;20211;-61
2023/12/18 03:51:48;;;;;;;2.20;2.10;;;;;;;;;;5091514;28;20612;-61
2023/12/18 03:54:15;;;;;;;2.33;2.13;;;;;;;;;;5091376;28;20523;-61
2023/12/18 03:56:42;;;;;;;2.25;2.05;;;;;;;;;;5092264;28;20574;-61
2023/12/18 03:59:09;;;;;;;2.15;1.95;;;;;;;;;;5092084;28;20215;-62
2023/12/18 04:01:37;;;;;;;2.33;2.13;;;;;;;;;;5093915;28;20282;-61
2023/12/18 04:04:05;;;;;;;2.13;1.92;;;;;;;;;;5093858;28;20202;-61
2023/12/18 04:06:34;;;;;;;2.10;1.90;;;;;;;;;;5088518;28;20235;-61
2023/12/18 04:09:02;;;;;;;2.10;1.90;;;;;;;;;;5089963;28;20231;-61
2023/12/18 04:11:29;;;;;;;2.10;2.00;;;;;;;;;;5091313;28;20215;-61
2023/12/18 04:13:56;;;;;;;2.15;2.03;;;;;;;;;;5092292;28;20207;-62
2023/12/18 04:16:24;;;;;;;1.80;1.70;;;;;;;;;;5089903;28;20211;-61
2023/12/18 04:18:51;;;;;;;2.20;2.00;;;;;;;;;;5092020;28;20199;-61
2023/12/18 04:21:19;;;;;;;2.10;1.90;;;;;;;;;;5091903;28;20538;-61
2023/12/18 04:23:47;;;;;;;1.98;1.80;;;;;;;;;;5092542;28;20712;-62
2023/12/18 04:26:15;;;;;;;2.45;2.25;;;;;;;;;;5091461;28;20305;-61
2023/12/18 04:28:42;;;;;;;2.35;2.15;;;;;;;;;;5090795;28;20211;-61
2023/12/18 04:31:10;;;;;;;2.00;1.90;;;;;;;;;;5086166;28;20239;-61
2023/12/18 04:33:39;;;;;;;2.35;2.15;;;;;;;;;;5090144;28;20268;-61
2023/12/18 04:36:07;;;;;;;2.20;2.00;;;;;;;;;;5090115;28;20322;-61
2023/12/18 04:38:35;;;;;;;2.22;2.03;;;;;;;;;;5089153;28;20211;-61
2023/12/18 04:41:04;;;;;;;2.25;2.05;;;;;;;;;;5091450;28;20208;-61
2023/12/18 04:43:32;;;;;;;2.08;1.92;;;;;;;;;;5092136;28;20207;-61
2023/12/18 04:46:00;;;;;;;2.22;2.10;;;;;;;;;;5091735;28;20227;-61
2023/12/18 04:48:27;;;;;;;1.90;1.80;;;;;;;;;;5092176;28;20584;-61
2023/12/18 04:50:55;;;;;;;1.80;1.70;;;;;;;;;;5090713;28;20770;-62
2023/12/18 04:53:22;;;;;;;2.00;1.90;;;;;;;;;;5090553;28;20320;-62
2023/12/18 04:55:49;;;;;;;1.98;1.85;;;;;;;;;;5090156;28;20314;-61
2023/12/18 04:58:18;;;;;;;1.80;1.70;;;;;;;;;;5090142;28;20301;-62
2023/12/18 05:00:45;;;;;;;1.90;1.80;;;;;;;;;;5088529;28;20191;-62
2023/12/18 05:03:13;;;;;;;2.63;1.98;;;;;;;;;;5090118;28;20211;-62
2023/12/18 05:05:40;;;;;;;1.80;1.70;;;;;;;;;;5089632;28;20203;-61
2023/12/18 05:08:08;;;;;;;2.30;2.10;;;;;;;;;;5090822;28;20222;-61
2023/12/18 05:10:35;;;;;;;1.95;1.85;;;;;;;;;;5090251;28;20215;-61
2023/12/18 05:13:02;;;;;;;2.30;2.10;;;;;;;;;;5090503;28;20215;-61
2023/12/18 05:15:31;;;;;;;2.13;2.03;;;;;;;;;;5087209;28;20220;-61
2023/12/18 05:17:58;;;;;;;2.00;1.90;;;;;;;;;;5085411;28;20219;-61
2023/12/18 05:20:26;;;;;;;2.30;2.10;;;;;;;;;;5089070;28;20317;-61
2023/12/18 05:22:53;;;;;;;1.90;1.80;;;;;;;;;;5089307;28;20226;-61
2023/12/18 05:25:21;;;;;;;2.20;2.05;;;;;;;;;;5086721;28;20203;-61
2023/12/18 05:27:48;;;;;;;2.00;1.90;;;;;;;;;;5089507;28;20289;-61
2023/12/18 05:30:15;;;;;;;2.30;2.10;;;;;;;;;;5091008;28;20307;-61
2023/12/18 05:32:44;;;;;;;2.47;2.28;;;;;;;;;;5090094;28;20246;-61
2023/12/18 05:35:11;;;;;;;2.15;1.95;;;;;;;;;;5092258;28;20228;-61
2023/12/18 05:37:38;;;;;;;2.15;1.98;;;;;;;;;;5090787;28;20218;-61
2023/12/18 05:40:06;;;;;;;2.30;2.10;;;;;;;;;;5088380;28;20208;-61
2023/12/18 05:42:33;;;;;;;2.00;1.90;;;;;;;;;;5088840;28;20620;-61
2023/12/18 05:45:01;;;;;;;1.95;1.85;;;;;;;;;;5087956;28;20211;-61
2023/12/18 05:47:28;;;;;;;1.98;1.88;;;;;;;;;;5091695;28;20536;-62
2023/12/18 05:49:56;;;;;;;2.20;2.00;;;;;;;;;;5086398;28;20559;-61
2023/12/18 05:52:24;;;;;;;2.20;1.70;;;;;;;;;;5086097;28;20269;-61
2023/12/18 05:54:51;;;;;;;2.33;2.13;;;;;;;;;;5087507;28;20273;-61
2023/12/18 05:57:19;;;;;;;2.00;1.85;;;;;;;;;;5088916;28;20236;-61
2023/12/18 05:59:46;;;;;;;2.47;2.28;;;;;;;;;;5085170;28;20207;-61
2023/12/18 06:02:13;;;;;;;2.22;2.03;;;;;;;;;;5089369;28;20200;-61
2023/12/18 06:04:43;;;;;;;2.33;2.13;;;;;;;;;;5086722;28;20670;-61
2023/12/18 06:07:12;;;;;;;1.90;1.80;;;;;;;;;;5088475;28;20254;-61
2023/12/18 06:09:40;;;;;;;2.40;2.20;;;;;;;;;;5089247;28;20204;-61
2023/12/18 06:12:07;;;;;;;2.40;2.20;;;;;;;;;;5086108;28;20216;-61
2023/12/18 06:14:34;;;;;;;2.10;1.92;;;;;;;;;;5088250;28;20218;-61
2023/12/18 06:17:02;;;;;;;2.10;1.90;;;;;;;;;;5087271;28;20231;-61
2023/12/18 06:19:29;;;;;;;2.25;2.05;;;;;;;;;;5087823;28;20200;-61
2023/12/18 06:21:56;;;;;;;2.28;2.08;;;;;;;;;;5082484;28;20207;-61
2023/12/18 06:24:25;;;;;;;2.00;1.90;;;;;;;;;;5088113;28;20211;-61
2023/12/18 06:26:54;;;;;;;2.00;1.90;;;;;;;;;;5088412;28;20230;-62
2023/12/18 06:29:21;;;;;;;2.28;2.08;;;;;;;;;;5090193;28;20298;-61
2023/12/18 06:31:48;;;;;;;2.25;2.05;;;;;;;;;;5088296;28;20219;-61
2023/12/18 06:34:16;;;;;;;1.90;1.80;;;;;;;;;;5088620;28;20211;-61
2023/12/18 06:36:44;;;;;;;2.25;2.05;;;;;;;;;;5085161;28;20244;-61
2023/12/18 06:39:12;;;;;;;1.95;1.83;;;;;;;;;;5086645;28;20211;-62
2023/12/18 06:41:40;;;;;;;2.20;2.00;;;;;;;;;;5087338;28;20204;-61
2023/12/18 06:44:08;;;;;;;2.08;1.90;;;;;;;;;;5085269;28;20210;-62
2023/12/18 06:46:35;;;;;;;2.38;2.17;;;;;;;;;;5089175;28;20231;-61
2023/12/18 06:49:03;;;;;;;2.05;1.90;;;;;;;;;;5085548;28;20226;-61
2023/12/18 06:51:30;;;;;;;1.88;1.77;;;;;;;;;;5089135;28;20554;-62
2023/12/18 06:53:57;;;;;;;2.40;2.20;;;;;;;;;;5086833;28;20556;-61
2023/12/18 06:56:24;;;;;;;2.25;2.05;;;;;;;;;;5084133;28;20766;-62
2023/12/18 06:58:53;;;;;;;2.20;2.00;;;;;;;;;;5086300;28;20246;-62
2023/12/18 07:01:21;;;;;;;2.20;2.00;;;;;;;;;;5086067;28;20200;-62
2023/12/18 07:03:48;;;;;;;2.35;2.15;;;;;;;;;;5084765;28;20204;-61
2023/12/18 07:06:15;;;;;;;1.90;1.80;;;;;;;;;;5088388;28;20200;-61
2023/12/18 07:08:42;;;;;;;2.25;2.05;;;;;;;;;;5085167;28;20234;-62
2023/12/18 07:11:10;;;;;;;2.35;2.15;;;;;;;;;;5086777;28;20223;-62
2023/12/18 07:13:37;;;;;;;2.30;2.10;;;;;;;;;;5082759;28;20208;-61
2023/12/18 07:16:07;;;;;;;2.35;2.17;;;;;;;;;;5085233;28;20222;-61
2023/12/18 07:18:34;;;;;;;2.10;1.90;;;;;;;;;;5086680;28;20445;-61
2023/12/18 07:21:01;;;;;;;1.83;1.73;;;;;;;;;;5087052;28;20294;-61
2023/12/18 07:23:29;;;;;;;2.10;2.00;;;;;;;;;;5087117;28;20319;-61
2023/12/18 07:25:56;;;;;;;2.45;2.25;;;;;;;;;;5087191;28;20210;-62
2023/12/18 07:28:24;;;;;;;2.10;2.00;;;;;;;;;;5085267;28;20605;-62
2023/12/18 07:30:51;;;;;;;2.38;2.17;;;;;;;;;;5087496;28;20204;-62
2023/12/18 07:33:20;;;;;;;2.40;2.20;;;;;;;;;;5086461;28;20204;-61
2023/12/18 07:35:47;;;;;;;2.40;2.20;;;;;;;;;;5086588;28;20224;-61
2023/12/18 07:38:14;;;;;;;2.22;2.03;;;;;;;;;;5087836;28;20213;-62
2023/12/18 07:40:42;;;;;;;2.42;2.22;;;;;;;;;;5086045;28;20199;-62
2023/12/18 07:43:09;;;;;;;2.17;2.00;;;;;;;;;;5085532;28;20263;-61
2023/12/18 07:45:37;;;;;;;2.28;2.08;;;;;;;;;;5085583;28;20203;-62
2023/12/18 07:48:04;;;;;;;2.30;2.10;;;;;;;;;;5087265;28;20230;-62
2023/12/18 07:50:33;;;;;;;2.83;2.08;;;;;;;;;;5089344;28;20211;-61
2023/12/18 07:53:00;;;;;;;2.20;2.00;;;;;;;;;;5088415;28;20210;-61
2023/12/18 07:55:28;;;;;;;2.55;2.35;;;;;;;;;;5086167;28;20219;-62
2023/12/18 07:57:55;;;;;;;2.30;2.10;;;;;;;;;;5084325;28;20235;-61
2023/12/18 08:00:22;;;;;;;2.40;2.20;;;;;;;;;;5087509;28;20269;-61
2023/12/18 08:02:49;;;;;;;2.22;2.13;;;;;;;;;;5087276;28;20200;-61
2023/12/18 08:05:17;;;;;;;2.33;2.13;;;;;;;;;;5084993;28;20217;-61
2023/12/18 08:07:46;;;;;;;2.50;2.30;;;;;;;;;;5086794;28;20236;-63
2023/12/18 08:10:14;;;;;;;3.28;2.10;;;;;;;;;;5083762;28;20230;-62
2023/12/18 08:12:41;;;;;;;2.15;1.95;;;;;;;;;;5087166;28;20707;-62
2023/12/18 08:15:09;;;;;;;2.17;2.03;;;;;;;;;;5086024;28;20215;-61
2023/12/18 08:17:39;;;;;;;2.40;2.20;;;;;;;;;;5087068;28;20232;-61
2023/12/18 08:20:07;;;;;;;2.45;2.25;;;;;;;;;;5087309;28;20288;-61
2023/12/18 08:22:35;;;;;;;2.50;2.30;;;;;;;;;;5086607;28;20621;-61
2023/12/18 08:25:04;;;;;;;2.50;2.30;;;;;;;;;;5090323;28;20683;-61
2023/12/18 08:27:33;;;;;;;2.30;2.10;;;;;;;;;;5086123;28;20231;-61
2023/12/18 08:30:00;;;;;;;2.40;2.10;;;;;;;;;;5086934;28;20210;-62
2023/12/18 08:32:28;;;;;;;2.28;2.08;;;;;;;;;;5087585;28;20220;-61
2023/12/18 08:34:58;;;;;;;2.40;2.20;;;;;;;;;;5088685;28;20212;-61
2023/12/18 08:37:25;;;;;;;2.55;2.35;;;;;;;;;;5090062;28;20303;-61
2023/12/18 08:39:52;;;;;;;2.70;2.50;;;;;;;;;;5089759;28;21051;-61
2023/12/18 08:42:22;;;;;;;2.60;2.40;;;;;;;;;;5090874;28;20208;-62
2023/12/18 08:44:49;;;;;;;2.75;2.55;;;;;;;;;;5090152;28;20293;-61
2023/12/18 08:47:17;;;;;;;2.58;2.38;;;;;;;;;;5090363;28;20231;-62
2023/12/18 08:49:44;;;;;;;2.80;2.50;;;;;;;;;;5089337;28;20302;-62
2023/12/18 08:52:11;;;;;;;2.13;2.00;;;;;;;;;;5086019;28;20219;-62
2023/12/18 08:54:39;;;;;;;2.63;2.42;;;;;;;;;;5086227;28;20227;-61
2023/12/18 08:57:06;;;;;;;2.65;2.45;;;;;;;;;;5088542;28;20235;-61
2023/12/18 08:59:35;;;;;;;2.80;2.60;;;;;;;;;;5091433;28;20211;-61
2023/12/18 09:02:02;;;;;;;2.40;2.20;;;;;;;;;;5089583;28;20203;-61
2023/12/18 09:04:30;;;;;;;2.80;2.50;;;;;;;;;;5089775;28;20219;-62
2023/12/18 09:06:57;;;;;;;2.70;2.50;;;;;;;;;;5088755;28;20211;-61
2023/12/18 09:09:25;;;;;;;3.13;2.92;;;;;;;;;;5090446;28;20204;-61
2023/12/18 09:11:53;;;;;;;2.70;2.45;;;;;;;;;;5088403;28;20207;-61
2023/12/18 09:14:20;;;;;;;2.85;2.47;;;;;;;;;;5089097;28;20203;-61
2023/12/18 09:16:49;;;;;;;2.85;2.55;;;;;;;;;;5086224;28;20332;-61
2023/12/18 09:19:17;;;;;;;2.67;2.47;;;;;;;;;;5089335;28;20597;-61
2023/12/18 09:21:44;;;;;;;2.85;2.65;;;;;;;;;;5089218;28;20212;-61
2023/12/18 09:24:11;;;;;;;2.85;2.55;;;;;;;;;;5088988;28;20212;-61
2023/12/18 09:26:39;;;;;;;2.72;2.53;;;;;;;;;;5088116;28;20215;-61
2023/12/18 09:29:06;;;;;;;2.45;2.25;;;;;;;;;;5087170;28;20242;-61
2023/12/18 09:31:33;;;;;;;2.42;2.22;;;;;;;;;;5087761;28;20200;-61
2023/12/18 09:34:02;;;;;;;3.10;2.80;;;;;;;;;;5085857;28;20616;-61
2023/12/18 09:36:29;;;;;;;2.50;2.30;;;;;;;;;;5087615;28;20204;-61
2023/12/18 09:38:56;;;;;;;2.58;2.38;;;;;;;;;;5087913;28;20244;-61
2023/12/18 09:41:24;;;;;;;2.85;2.42;;;;;;;;;;5091592;28;20200;-61
2023/12/18 09:43:53;;;;;;;2.53;2.33;;;;;;;;;;5089775;28;20210;-61
2023/12/18 09:46:23;;;;;;;2.78;2.58;;;;;;;;;;5088030;28;20326;-61
2023/12/18 09:48:50;;;;;;;3.00;2.80;;;;;;;;;;5089234;28;20241;-61
2023/12/18 09:51:21;;;;;;;2.85;2.65;;;;;;;;;;5087085;28;20680;-61
2023/12/18 09:53:49;;;;;;;2.30;2.15;;;;;;;;;;5089380;28;20206;-61
2023/12/18 09:56:18;;;;;;;2.55;2.35;;;;;;;;;;5088542;28;20211;-62
2023/12/18 09:58:47;;;;;;;2.40;2.20;;;;;;;;;;5076881;28;20224;-61
2023/12/18 10:01:15;;;;;;;2.70;2.50;;;;;;;;;;5085331;28;20297;-61
2023/12/18 10:03:42;;;;;;;3.22;2.67;;;;;;;;;;5087271;28;20217;-61
2023/12/18 10:06:10;;;;;;;2.58;2.38;;;;;;;;;;5087097;28;20605;-61
2023/12/18 10:08:38;;;;;;;2.75;2.30;;;;;;;;;;5088519;28;20231;-61
2023/12/18 10:11:06;;;;;;;2.90;2.58;;;;;;;;;;5087385;28;20207;-61
2023/12/18 10:13:37;;;;;;;2.55;2.35;;;;;;;;;;5087812;28;21146;-61
2023/12/18 10:16:04;;;;;;;2.53;2.33;;;;;;;;;;5086176;28;20346;-61
2023/12/18 10:18:33;;;;;;;2.55;2.35;;;;;;;;;;5087500;28;20208;-61
2023/12/18 10:21:00;;;;;;;2.72;2.33;;;;;;;;;;5089529;28;20215;-61
2023/12/18 10:23:27;;;;;;;2.38;2.28;;;;;;;;;;5087363;28;20207;-61
2023/12/18 10:25:56;;;;;;;2.65;2.45;;;;;;;;;;5087783;28;20199;-61
2023/12/18 10:28:24;;;;;;;2.70;2.50;;;;;;;;;;5086550;28;20293;-61
2023/12/18 10:30:53;;;;;;;2.70;2.50;;;;;;;;;;5091478;28;20207;-61
2023/12/18 10:33:20;;;;;;;2.75;2.55;;;;;;;;;;5090832;28;20221;-61
2023/12/18 10:35:49;;;;;;;2.58;2.38;;;;;;;;;;5087085;28;20216;-62
2023/12/18 10:38:20;;;;;;;2.42;2.22;;;;;;;;;;5086376;28;20385;-61
2023/12/18 10:40:48;;;;;;;2.38;2.17;;;;;;;;;;5085724;28;20218;-61
2023/12/18 10:43:22;;;;;;;2.05;1.95;;;;;;;;;;5087375;28;20204;-61
2023/12/18 10:45:50;;;;;;;2.65;2.45;;;;;;;;;;5087371;28;20214;-61
2023/12/18 10:48:18;;;;;;;2.67;2.47;;;;;;;;;;5087637;28;20243;-61
2023/12/18 10:50:46;;;;;;;2.67;2.47;;;;;;;;;;5080954;28;20223;-61
2023/12/18 10:53:15;;;;;;;2.42;2.22;;;;;;;;;;5087387;28;20215;-61
2023/12/18 10:55:42;;;;;;;2.20;2.10;;;;;;;;;;5084092;28;20214;-61
2023/12/18 10:58:11;;;;;;;2.67;2.40;;;;;;;;;;5084519;28;20227;-61
2023/12/18 11:00:40;;;;;;;2.75;2.55;;;;;;;;;;5087925;28;20552;-62
2023/12/18 11:03:08;;;;;;;2.30;2.10;;;;;;;;;;5087401;28;20215;-61
2023/12/18 11:05:36;;;;;;;2.47;2.28;;;;;;;;;;5088832;28;20234;-61
2023/12/18 11:08:04;;;;;;;2.53;2.33;;;;;;;;;;5086384;28;20250;-61
2023/12/18 11:10:31;;;;;;;2.38;2.17;;;;;;;;;;5085210;28;20528;-61
2023/12/18 11:13:03;;;;;;;2.55;2.35;;;;;;;;;;5086807;28;20302;-61
2023/12/18 11:15:37;;;;;;;2.58;2.13;;;;;;;;;;5085148;28;20617;-61
2023/12/18 11:18:16;;;;;;;2.70;2.50;;;;;;;;;;5083144;28;20232;-61
2023/12/18 11:20:44;;;;;;;2.30;2.10;;;;;;;;;;5089558;28;20203;-61
2023/12/18 11:23:12;;;;;;;2.45;2.25;;;;;;;;;;5086973;28;20203;-61
2023/12/18 11:25:43;;;;;;;2.40;2.20;;;;;;;;;;5086110;28;20199;-61
2023/12/18 11:28:10;;;;;;;2.47;2.28;;;;;;;;;;5086043;28;20336;-61
2023/12/18 11:30:42;;;;;;;2.45;2.25;;;;;;;;;;5084275;28;20203;-61
2023/12/18 11:33:11;;;;;;;2.10;2.00;;;;;;;;;;5083070;28;20234;-61
2023/12/18 11:35:39;;;;;;;1.90;1.80;;;;;;;;;;5085770;28;20261;-61
2023/12/18 11:38:08;;;;;;;2.22;2.03;;;;;;;;;;5084389;28;20296;-61
2023/12/18 11:40:39;;;;;;;2.38;2.17;;;;;;;;;;5083053;28;20215;-61
2023/12/18 11:43:08;;;;;;;2.63;2.42;;;;;;;;;;5083414;28;20218;-61
2023/12/18 11:45:39;;;;;;;2.20;2.05;;;;;;;;;;5083129;28;20207;-61
2023/12/18 11:48:07;;;;;;;2.55;2.35;;;;;;;;;;5084701;28;20277;-61
2023/12/18 11:50:38;;;;;;;2.15;2.03;;;;;;;;;;5085493;28;20211;-61
2023/12/18 11:53:09;;;;;;;2.00;1.90;;;;;;;;;;5081404;28;20236;-61
2023/12/18 11:55:46;;;;;;;2.15;2.05;;;;;;;;;;5085619;28;20215;-61
2023/12/18 11:58:15;;;;;;;1.90;1.80;;;;;;;;;;5083140;28;20256;-61
2023/12/18 12:00:43;;;;;;;2.20;2.00;;;;;;;;;;5090617;28;20264;-61
2023/12/18 12:03:10;;;;;;;2.15;1.95;;;;;;;;;;5091878;28;20213;-61
2023/12/18 12:05:40;;;;;;;1.90;1.80;;;;;;;;;;5089451;28;20200;-61
2023/12/18 12:08:08;;;;;;;2.20;2.00;;;;;;;;;;5090207;28;20208;-61
2023/12/18 12:10:42;;;;;;;2.28;2.08;;;;;;;;;;5087451;28;20235;-61
2023/12/18 12:13:09;;;;;;;2.10;2.00;;;;;;;;;;5090471;28;20211;-61
2023/12/18 12:15:37;;;;;;;1.90;1.80;;;;;;;;;;5079346;28;20238;-61
2023/12/18 12:18:05;;;;;;;2.50;2.30;;;;;;;;;;5087967;28;20279;-61
2023/12/18 12:20:32;;;;;;;2.13;1.98;;;;;;;;;;5089149;28;20234;-61
2023/12/18 12:23:01;;;;;;;2.38;2.17;;;;;;;;;;5087783;28;20200;-61
2023/12/18 12:25:28;;;;;;;1.70;1.60;;;;;;;;;;5086980;28;20264;-61
2023/12/18 12:27:55;;;;;;;2.30;2.10;;;;;;;;;;5087867;28;20215;-61
2023/12/18 12:30:23;;;;;;;2.30;2.10;;;;;;;;;;5087701;28;20227;-61
2023/12/18 12:32:52;;;;;;;2.10;1.90;;;;;;;;;;5089293;28;20230;-61
2023/12/18 12:35:20;;;;;;;1.90;1.70;;;;;;;;;;5088204;28;20325;-61
2023/12/18 12:37:47;;;;;;;1.60;1.50;;;;;;;;;;5086151;28;20204;-62
2023/12/18 12:40:16;;;;;;;1.85;1.73;;;;;;;;;;5090527;28;20285;-61
2023/12/18 12:42:43;;;;;;;1.77;1.67;;;;;;;;;;5087929;28;20203;-61
2023/12/18 12:45:12;;;;;;;2.20;2.00;;;;;;;;;;5089903;28;20204;-61
2023/12/18 12:47:38;;;;;;;2.00;1.90;;;;;;;;;;5090015;28;20631;-61
2023/12/18 12:50:07;;;;;;;2.00;1.90;;;;;;;;;;5088243;28;20223;-61
2023/12/18 12:52:36;;;;;;;2.10;1.98;;;;;;;;;;5087028;28;20716;-61
2023/12/18 12:55:04;;;;;;;2.00;1.90;;;;;;;;;;5083687;28;20239;-61
2023/12/18 12:57:33;;;;;;;1.90;1.80;;;;;;;;;;5090988;28;20295;-62
2023/12/18 13:00:00;;;;;;;2.10;1.90;;;;;;;;;;5089816;28;20214;-62
2023/12/18 13:02:28;;;;;;;2.03;1.90;;;;;;;;;;5087530;28;20809;-62
2023/12/18 13:04:56;;;;;;;1.98;1.88;;;;;;;;;;5087505;28;20295;-61
2023/12/18 13:07:24;;;;;;;1.95;1.85;;;;;;;;;;5088096;28;20203;-61
2023/12/18 13:09:52;;;;;;;2.03;1.92;;;;;;;;;;5087017;28;20641;-61
2023/12/18 13:12:21;;;;;;;1.90;1.80;;;;;;;;;;5086917;28;20204;-62
2023/12/18 13:14:50;;;;;;;2.00;1.88;;;;;;;;;;5085929;28;20230;-61
2023/12/18 13:17:17;;;;;;;1.90;1.80;;;;;;;;;;5085216;28;20218;-61
2023/12/18 13:19:45;;;;;;;1.85;1.75;;;;;;;;;;5088791;28;20848;-61
2023/12/18 13:22:13;;;;;;;1.70;1.60;;;;;;;;;;5087746;28;20242;-62
2023/12/18 13:24:40;;;;;;;1.80;1.70;;;;;;;;;;5085472;28;20323;-61
2023/12/18 13:27:08;;;;;;;1.90;1.80;;;;;;;;;;5087721;28;20210;-61
2023/12/18 13:29:36;;;;;;;1.83;1.73;;;;;;;;;;5087449;28;20636;-62
2023/12/18 13:32:06;;;;;;;1.77;1.67;;;;;;;;;;5085957;28;20208;-62
2023/12/18 13:34:33;;;;;;;1.70;1.60;;;;;;;;;;5085060;28;20215;-62
2023/12/18 13:37:01;;;;;;;1.90;1.60;;;;;;;;;;5086816;28;20235;-61
2023/12/18 13:39:29;;;;;;;1.95;1.85;;;;;;;;;;5084751;28;20222;-61
2023/12/18 13:41:59;;;;;;;1.70;1.60;;;;;;;;;;5087849;28;20214;-61
2023/12/18 13:44:28;;;;;;;1.90;1.80;;;;;;;;;;5089666;28;20244;-61
2023/12/18 13:46:55;;;;;;;1.70;1.60;;;;;;;;;;5101579;28;20287;-62
2023/12/18 13:49:23;;;;;;;1.90;1.80;;;;;;;;;;5091179;28;20239;-62
2023/12/18 13:51:51;;;;;;;2.00;1.90;;;;;;;;;;5091299;28;20872;-62
2023/12/18 13:54:19;;;;;;;1.77;1.67;;;;;;;;;;5093473;28;20223;-61
2023/12/18 13:56:47;;;;;;;1.85;1.70;;;;;;;;;;5093754;28;20268;-61
2023/12/18 13:59:14;;;;;;;1.83;1.73;;;;;;;;;;5084415;28;20208;-61
2023/12/18 14:01:41;;;;;;;1.50;1.35;;;;;;;;;;5090915;28;20294;-62
2023/12/18 14:04:09;;;;;;;1.55;1.45;;;;;;;;;;5091640;28;20217;-61
2023/12/18 14:06:38;;;;;;;1.63;1.52;;;;;;;;;;5086418;28;20612;-61
2023/12/18 14:09:05;;;;;;;1.60;1.50;;;;;;;;;;5091661;28;20335;-61
2023/12/18 14:11:33;;;;;;;1.70;1.60;;;;;;;;;;5084164;28;20223;-61
2023/12/18 14:14:00;;;;;;;1.65;1.55;;;;;;;;;;5085178;28;20204;-61
2023/12/18 14:16:28;;;;;;;1.60;1.50;;;;;;;;;;5086576;28;20199;-61
2023/12/18 14:18:55;;;;;;;1.40;1.30;;;;;;;;;;5085794;28;20226;-61
2023/12/18 14:21:24;;;;;;;1.85;1.75;;;;;;;;;;5086610;28;20301;-61
2023/12/18 14:23:53;;;;;;;1.50;1.40;;;;;;;;;;5086660;28;20208;-64
2023/12/18 14:26:20;;;;;;;1.65;1.55;;;;;;;;;;5085273;28;20663;-61
2023/12/18 14:28:47;;;;;;;1.67;1.58;;;;;;;;;;5090004;28;20223;-61
2023/12/18 14:31:15;;;;;;;1.52;1.42;;;;;;;;;;5086874;28;20312;-61
2023/12/18 14:33:42;;;;;;;1.75;1.60;;;;;;;;;;5085797;28;20731;-61
2023/12/18 14:36:10;;;;;;;1.60;1.50;;;;;;;;;;5087653;28;20604;-62
2023/12/18 14:38:37;;;;;;;1.50;1.40;;;;;;;;;;5084990;28;20204;-62
2023/12/18 14:41:06;;;;;;;1.70;1.60;;;;;;;;;;5083384;28;20207;-61
2023/12/18 14:43:33;;;;;;;1.65;1.55;;;;;;;;;;5084093;28;20741;-61
2023/12/18 14:46:00;;;;;;;1.60;1.50;;;;;;;;;;5083998;28;20223;-61